createdAt,value
2023-05-10T00:04:14.627Z,13.82
2023-05-10T00:09:25.610Z,13.8
2023-05-10T00:14:22.471Z,13.78
2023-05-10T00:19:22.919Z,13.75
2023-05-10T00:24:22.877Z,13.72
2023-05-10T00:29:20.971Z,13.74
2023-05-10T00:34:21.431Z,13.75
2023-05-10T00:39:22.613Z,13.75
2023-05-10T00:44:19.473Z,13.75
2023-05-10T00:49:19.820Z,13.75
2023-05-10T00:54:19.575Z,13.72
2023-05-10T00:58:53.985Z,13.68
2023-05-10T01:03:53.457Z,13.64
2023-05-10T01:08:53.519Z,13.63
2023-05-10T01:13:52.663Z,13.62
2023-05-10T01:18:52.185Z,13.6
2023-05-10T01:23:51.587Z,13.57
2023-05-10T01:28:51.219Z,13.54
2023-05-10T01:40:07.944Z,13.51
2023-05-10T01:43:48.898Z,13.47
2023-05-10T01:48:48.986Z,13.49
2023-05-10T01:53:48.582Z,13.48
2023-05-10T01:58:47.680Z,13.48
2023-05-10T02:03:47.432Z,13.47
2023-05-10T02:08:46.961Z,13.47
2023-05-10T02:13:46.682Z,13.44
2023-05-10T02:18:47.354Z,13.41
2023-05-10T02:23:44.635Z,13.41
2023-05-10T02:28:44.568Z,13.41
2023-05-10T02:33:44.427Z,13.36
2023-05-10T02:38:43.861Z,13.33
2023-05-10T02:43:42.370Z,13.3
2023-05-10T02:48:42.227Z,13.28
2023-05-10T02:53:42.262Z,13.27
2023-05-10T02:58:41.633Z,13.27
2023-05-10T03:03:40.670Z,13.3
2023-05-10T03:08:40.792Z,13.32
2023-05-10T03:13:41.131Z,13.34
2023-05-10T03:18:40.485Z,13.36
2023-05-10T03:23:38.909Z,13.33
2023-05-10T03:28:38.686Z,13.32
2023-05-10T03:33:38.527Z,13.32
2023-05-10T03:38:37.878Z,13.35
2023-05-10T03:43:37.323Z,13.33
2023-05-10T03:48:36.857Z,13.26
2023-05-10T03:53:36.506Z,13.18
2023-05-10T03:58:35.843Z,13.09
2023-05-10T03:59:59.032Z,13.06
2023-05-10T04:09:56.207Z,12.93
2023-05-10T04:14:56.090Z,12.9
2023-05-10T04:49:51.156Z,12.68
2023-05-10T04:54:50.201Z,12.61
2023-05-10T04:59:22.630Z,12.5
2023-05-10T05:04:19.805Z,12.41
2023-05-10T05:09:20.195Z,12.34
2023-05-10T05:14:19.819Z,12.36
2023-05-10T05:19:07.396Z,12.36
2023-05-10T05:24:06.745Z,12.37
2023-05-10T05:29:06.737Z,12.33
2023-05-10T05:34:06.020Z,12.33
2023-05-10T05:39:05.288Z,12.36
2023-05-10T05:44:04.636Z,12.4
2023-05-10T05:49:04.559Z,12.41
2023-05-10T05:54:03.798Z,12.44
2023-05-10T05:58:52.729Z,12.43
2023-05-10T06:03:51.856Z,12.44
2023-05-10T06:08:50.087Z,12.47
2023-05-10T06:13:49.273Z,12.52
2023-05-10T06:18:48.755Z,12.53
2023-05-10T06:23:46.845Z,12.5
2023-05-10T06:28:46.760Z,12.56
2023-05-10T06:33:45.981Z,12.63
2023-05-10T06:38:46.575Z,12.68
2023-05-10T06:43:44.032Z,12.78
2023-05-10T06:48:43.997Z,12.8
2023-05-10T06:53:43.170Z,12.86
2023-05-10T06:58:42.995Z,12.92
2023-05-10T07:03:41.410Z,12.87
2023-05-10T07:08:40.976Z,12.81
2023-05-10T07:13:40.947Z,12.76
2023-05-10T07:18:40.265Z,12.81
2023-05-10T07:23:39.520Z,12.82
2023-05-10T07:28:39.036Z,12.81
2023-05-10T07:33:38.814Z,12.77
2023-05-10T07:38:40.311Z,12.77
2023-05-10T07:43:38.892Z,12.79
2023-05-10T07:48:36.356Z,12.91
2023-05-10T07:53:36.286Z,12.92
2023-05-10T07:58:36.479Z,12.89
2023-05-10T07:59:57.643Z,12.9
2023-05-10T08:04:57.279Z,12.84
2023-05-10T08:09:56.705Z,12.83
2023-05-10T08:14:56.169Z,12.81
2023-05-10T08:19:56.977Z,12.88
2023-05-10T08:24:54.271Z,13
2023-05-10T08:29:54.039Z,13.01
2023-05-10T08:34:54.104Z,13.08
2023-05-10T08:39:53.904Z,13.1
2023-05-10T08:44:52.276Z,13
2023-05-10T08:49:51.669Z,12.98
2023-05-10T08:54:51.761Z,13
2023-05-10T08:58:57.448Z,12.93
2023-05-10T09:03:56.842Z,12.9
2023-05-10T09:08:56.234Z,12.91
2023-05-10T09:14:49.822Z,12.99
2023-05-10T09:18:56.437Z,13.02
2023-05-10T09:23:55.762Z,13.16
2023-05-10T09:28:55.670Z,13.32
2023-05-10T09:33:54.707Z,13.36
2023-05-10T09:38:53.585Z,13.36
2023-05-10T09:43:52.936Z,13.36
2023-05-10T09:48:52.950Z,13.27
2023-05-10T09:53:52.430Z,13.33
2023-05-10T09:58:51.788Z,13.52
2023-05-10T10:03:51.670Z,14.05
2023-05-10T10:08:51.273Z,14.53
2023-05-10T10:13:50.889Z,14.71
2023-05-10T10:18:51.410Z,14.54
2023-05-10T10:23:48.712Z,14.29
2023-05-10T10:28:48.701Z,14.09
2023-05-10T10:33:48.388Z,14.11
2023-05-10T10:38:47.538Z,14.02
2023-05-10T10:43:45.976Z,13.95
2023-05-10T10:48:45.762Z,13.79
2023-05-10T10:53:45.820Z,13.63
2023-05-10T10:58:45.180Z,13.78
2023-05-10T11:03:44.265Z,13.97
2023-05-10T11:08:43.763Z,14.01
2023-05-10T11:13:43.738Z,13.92
2023-05-10T11:18:43.745Z,13.83
2023-05-10T11:23:42.062Z,13.66
2023-05-10T11:28:41.509Z,13.63
2023-05-10T11:33:41.534Z,13.59
2023-05-10T11:38:40.844Z,13.51
2023-05-10T11:43:40.188Z,13.7
2023-05-10T11:48:39.653Z,13.71
2023-05-10T11:53:39.724Z,13.65
2023-05-10T11:58:38.933Z,13.57
2023-05-10T12:03:39.770Z,13.46
2023-05-10T12:08:36.863Z,13.41
2023-05-10T12:13:36.572Z,13.48
2023-05-10T12:18:35.800Z,13.55
2023-05-10T12:23:35.566Z,13.71
2023-05-10T12:28:33.921Z,13.89
2023-05-10T12:33:33.595Z,14.11
2023-05-10T12:38:33.659Z,14.23
2023-05-10T12:43:32.996Z,14.27
2023-05-10T12:48:33.434Z,14.18
2023-05-10T12:53:31.909Z,14.1
2023-05-10T12:58:35.797Z,13.99
2023-05-10T12:59:53.287Z,13.98
2023-05-10T13:04:51.646Z,13.97
2023-05-10T13:09:51.250Z,14.19
2023-05-10T13:14:51.349Z,14.39
2023-05-10T13:58:54.593Z,15.91
2023-05-10T14:03:54.057Z,16.24
2023-05-10T14:08:52.571Z,16.2
2023-05-10T14:13:52.252Z,16.04
2023-05-10T14:18:52.272Z,15.79
2023-05-10T14:23:51.484Z,15.59
2023-05-10T14:28:50.795Z,15.4
2023-05-10T14:33:51.008Z,15.25
2023-05-10T14:38:50.104Z,15.26
2023-05-10T14:43:50.143Z,15.37
2023-05-10T14:48:48.125Z,15.42
2023-05-10T14:53:47.890Z,15.46
2023-05-10T14:58:48.012Z,15.31
2023-05-10T15:03:47.492Z,15.16
2023-05-10T15:08:46.804Z,15.1
2023-05-10T15:13:46.450Z,15.11
2023-05-10T15:18:46.458Z,15.19
2023-05-10T15:23:45.866Z,15.42
2023-05-10T15:28:46.475Z,15.57
2023-05-10T15:33:43.776Z,15.58
2023-05-10T15:38:43.446Z,15.63
2023-05-10T15:43:43.280Z,15.7
2023-05-10T15:48:42.812Z,15.73
2023-05-10T15:53:49.691Z,15.66
2023-05-10T15:58:40.764Z,15.66
2023-05-10T16:03:41.050Z,15.72
2023-05-10T16:08:40.560Z,15.84
2023-05-10T16:13:38.440Z,15.86
2023-05-10T16:18:38.451Z,15.84
2023-05-10T16:23:38.622Z,15.8
2023-05-10T16:28:38.123Z,15.72
2023-05-10T16:33:36.580Z,15.57
2023-05-10T16:38:36.158Z,15.55
2023-05-10T16:43:35.987Z,15.49
2023-05-10T16:48:35.714Z,15.35
2023-05-10T16:53:34.757Z,15.35
2023-05-10T16:58:34.611Z,15.45
2023-05-10T16:59:56.098Z,15.46
2023-05-10T17:19:53.877Z,15.04
2023-05-10T17:59:20.819Z,14.49
2023-05-10T18:04:22.086Z,14.48
2023-05-10T18:09:18.981Z,14.43
2023-05-10T18:14:28.461Z,14.37
2023-05-10T18:19:19.317Z,14.31
2023-05-10T18:24:07.373Z,14.22
2023-05-10T18:29:06.758Z,14.18
2023-05-10T18:34:06.725Z,14.13
2023-05-10T18:39:05.990Z,14.1
2023-05-10T18:44:05.060Z,14.02
2023-05-10T18:49:04.393Z,13.88
2023-05-10T18:54:04.085Z,13.7
2023-05-10T18:58:50.538Z,13.56
2023-05-10T19:03:51.072Z,13.41
2023-05-10T19:08:48.379Z,13.28
2023-05-10T19:13:48.170Z,13.21
2023-05-10T19:18:48.204Z,13.15
2023-05-10T19:23:48.268Z,13.14
2023-05-10T19:28:47.661Z,13.14
2023-05-10T19:33:47.479Z,13.15
2023-05-10T19:38:46.796Z,13.15
2023-05-10T19:43:47.552Z,13.13
2023-05-10T19:48:45.775Z,13.15
2023-05-10T19:53:44.728Z,13.17
2023-05-10T19:58:44.223Z,13.17
2023-05-10T20:03:43.344Z,13.17
2023-05-10T20:08:41.874Z,13.15
2023-05-10T20:13:41.346Z,13.11
2023-05-10T20:18:41.246Z,13.07
2023-05-10T20:23:40.537Z,13.02
2023-05-10T20:28:39.850Z,12.96
2023-05-10T20:33:39.237Z,12.86
2023-05-10T20:38:39.112Z,12.76
2023-05-10T20:43:38.384Z,12.63
2023-05-10T20:48:39.117Z,12.49
2023-05-10T20:53:36.514Z,12.36
2023-05-10T20:58:36.163Z,12.21
2023-05-10T20:59:57.495Z,12.18
2023-05-10T21:58:56.076Z,12.25
2023-05-10T22:03:55.299Z,12.26
2023-05-10T22:08:54.593Z,12.26
2023-05-10T22:13:53.955Z,12.25
2023-05-10T22:18:54.047Z,12.23
2023-05-10T22:23:52.950Z,12.22
2023-05-10T22:28:53.997Z,12.22
2023-05-10T22:33:51.108Z,12.22
2023-05-10T22:38:50.592Z,12.2
2023-05-10T22:43:49.938Z,12.2
2023-05-10T22:48:49.380Z,12.19
2023-05-10T22:53:48.938Z,12.16
2023-05-10T22:58:48.683Z,12.14
2023-05-10T23:03:48.128Z,12.11
2023-05-10T23:08:48.777Z,12.07
2023-05-10T23:13:46.310Z,12
2023-05-10T23:18:45.943Z,11.91
2023-05-10T23:23:46.193Z,11.82
2023-05-10T23:28:45.687Z,11.73
2023-05-10T23:33:43.961Z,11.64
2023-05-10T23:43:43.353Z,11.44
2023-05-10T23:48:42.908Z,11.46
2023-05-10T23:53:41.854Z,11.51
2023-05-10T23:58:41.462Z,11.54
